Time;durP1;ratioP1;P1;durP2;ratioP2;P2;SDS_P1;SDS_P2;PMS_P1;PMS_P2;Temp;Humidity;BMP_temperature;BMP_pressure;BME280_temperature;BME280_humidity;BME280_pressure;Samples;Min_cycle;Max_cycle;Signal;HPM_P1;HPM_P2
2023/09/24 00:02:11;;;;;;;3.55;1.42;;;20.70;50.20;;;;;;5109248;27;45401;-69
2023/09/24 00:04:37;;;;;;;4.20;1.70;;;20.70;50.20;;;;;;5108778;27;46377;-69
2023/09/24 00:07:05;;;;;;;1.88;1.40;;;20.60;50.10;;;;;;5108928;27;45278;-69
2023/09/24 00:09:32;;;;;;;2.40;1.40;;;20.60;50.30;;;;;;5109116;27;45355;-70
2023/09/24 00:11:59;;;;;;;3.47;1.40;;;20.60;50.20;;;;;;5109017;27;45321;-70
2023/09/24 00:14:27;;;;;;;2.50;1.58;;;20.60;50.30;;;;;;5108802;27;45349;-70
2023/09/24 00:16:56;;;;;;;3.05;1.40;;;20.60;50.40;;;;;;5108586;27;45306;-69
2023/09/24 00:19:23;;;;;;;5.18;1.70;;;20.60;50.40;;;;;;5108908;27;45264;-69
2023/09/24 00:21:50;;;;;;;1.75;1.20;;;20.60;50.30;;;;;;5109056;27;45310;-69
2023/09/24 00:24:18;;;;;;;4.60;1.65;;;20.50;50.30;;;;;;5108420;27;45447;-69
2023/09/24 00:26:45;;;;;;;2.90;1.45;;;20.50;50.30;;;;;;5108598;27;45361;-70
2023/09/24 00:29:11;;;;;;;2.05;1.40;;;20.50;50.20;;;;;;5108927;27;45377;-69
2023/09/24 00:31:38;;;;;;;3.33;1.08;;;20.50;50.30;;;;;;5108946;27;45418;-69
2023/09/24 00:34:06;;;;;;;1.55;1.10;;;20.50;50.40;;;;;;5108295;27;46294;-69
2023/09/24 00:36:33;;;;;;;2.38;1.33;;;20.50;50.20;;;;;;5108163;27;45385;-70
2023/09/24 00:39:01;;;;;;;3.00;1.67;;;20.40;50.30;;;;;;5107742;27;45353;-69
2023/09/24 00:41:27;;;;;;;3.72;1.13;;;20.40;50.40;;;;;;5108717;27;45260;-69
2023/09/24 00:43:54;;;;;;;2.53;1.25;;;20.40;50.40;;;;;;5108270;27;46540;-70
2023/09/24 00:46:22;;;;;;;1.35;1.23;;;20.30;50.40;;;;;;5108320;27;45326;-69
2023/09/24 00:48:48;;;;;;;2.05;1.20;;;20.30;50.30;;;;;;5108426;27;45421;-70
2023/09/24 00:51:18;;;;;;;1.65;1.38;;;20.30;50.40;;;;;;5108546;27;45302;-69
2023/09/24 00:53:45;;;;;;;1.83;1.33;;;20.30;50.30;;;;;;5108054;27;45467;-70
2023/09/24 00:56:12;;;;;;;1.48;1.10;;;20.30;50.30;;;;;;5108028;27;45341;-69
2023/09/24 00:58:39;;;;;;;2.85;1.10;;;20.30;50.50;;;;;;5108410;27;45319;-69
2023/09/24 01:01:06;;;;;;;1.88;1.27;;;20.20;50.30;;;;;;5108394;27;45387;-69
2023/09/24 01:03:33;;;;;;;5.18;1.25;;;20.30;50.40;;;;;;5107765;27;46711;-69
2023/09/24 01:06:00;;;;;;;2.17;1.10;;;20.20;50.40;;;;;;5108101;27;45261;-69
2023/09/24 01:08:31;;;;;;;2.42;1.10;;;20.20;50.30;;;;;;5108132;27;45269;-69
2023/09/24 01:10:58;;;;;;;2.83;1.00;;;20.20;50.40;;;;;;5108178;27;45471;-69
2023/09/24 01:13:26;;;;;;;1.65;1.05;;;20.20;51.00;;;;;;5107816;27;47299;-69
2023/09/24 01:15:53;;;;;;;1.20;1.10;;;20.20;50.40;;;;;;5107727;27;45319;-69
2023/09/24 01:18:20;;;;;;;1.30;0.98;;;20.20;50.40;;;;;;5108028;27;45335;-69
2023/09/24 01:20:47;;;;;;;1.70;1.30;;;20.20;50.30;;;;;;5108103;27;45389;-69
2023/09/24 01:23:15;;;;;;;1.95;1.27;;;20.10;50.40;;;;;;5107551;27;45495;-69
2023/09/24 01:25:44;;;;;;;2.20;1.20;;;20.10;50.40;;;;;;5107731;27;45367;-69
2023/09/24 01:28:11;;;;;;;1.40;1.23;;;20.10;50.60;;;;;;5107799;27;45231;-69
2023/09/24 01:30:38;;;;;;;1.13;1.02;;;20.10;50.40;;;;;;5107918;27;45295;-68
2023/09/24 01:33:05;;;;;;;1.08;0.95;;;20.10;50.50;;;;;;5107557;27;47254;-69
2023/09/24 01:35:33;;;;;;;1.30;1.17;;;20.10;50.50;;;;;;5107040;27;45126;-68
2023/09/24 01:38:04;;;;;;;1.33;1.10;;;20.00;50.30;;;;;;5107635;27;45485;-69
2023/09/24 01:40:37;;;;;;;1.45;1.10;;;20.00;50.50;;;;;;5107955;27;45298;-68
2023/09/24 01:43:05;;;;;;;1.17;1.08;;;20.00;50.50;;;;;;5107307;27;45207;-69
2023/09/24 01:45:33;;;;;;;1.90;1.00;;;20.00;50.60;;;;;;5107344;27;45240;-69
2023/09/24 01:48:00;;;;;;;1.42;1.00;;;20.00;50.50;;;;;;5107526;27;45286;-69
2023/09/24 01:50:28;;;;;;;2.05;0.88;;;20.00;50.50;;;;;;5107468;27;45332;-68
2023/09/24 01:52:57;;;;;;;1.55;1.30;;;20.00;50.50;;;;;;5107163;27;46632;-69
2023/09/24 01:55:24;;;;;;;1.08;0.98;;;19.90;50.50;;;;;;5107255;27;45454;-69
2023/09/24 01:57:53;;;;;;;1.75;1.10;;;19.90;50.50;;;;;;5107316;27;45376;-69
2023/09/24 02:00:25;;;;;;;0.93;0.90;;;19.90;50.50;;;;;;5107712;27;45495;-69
2023/09/24 02:02:52;;;;;;;2.25;1.10;;;19.90;50.50;;;;;;5106956;27;45826;-68
2023/09/24 02:05:20;;;;;;;2.35;1.20;;;19.90;50.60;;;;;;5107395;27;45248;-69
2023/09/24 02:07:49;;;;;;;0.80;0.80;;;19.80;50.60;;;;;;5107262;27;45272;-69
2023/09/24 02:10:18;;;;;;;1.35;1.05;;;19.80;50.50;;;;;;5107202;27;45572;-69
2023/09/24 02:12:45;;;;;;;1.70;1.00;;;19.80;50.50;;;;;;5106880;27;45259;-69
2023/09/24 02:15:17;;;;;;;1.08;0.85;;;19.80;50.50;;;;;;5106860;27;45291;-69
2023/09/24 02:17:45;;;;;;;0.90;0.85;;;19.80;50.50;;;;;;5107021;27;45112;-69
2023/09/24 02:20:22;;;;;;;1.90;1.10;;;19.80;50.50;;;;;;5107523;27;45351;-69
2023/09/24 02:22:50;;;;;;;1.55;1.13;;;19.80;50.50;;;;;;5106717;27;45730;-69
2023/09/24 02:25:16;;;;;;;1.50;1.10;;;19.80;50.50;;;;;;5106889;27;45404;-69
2023/09/24 02:27:44;;;;;;;0.88;0.80;;;19.70;50.50;;;;;;5106991;27;45449;-69
2023/09/24 02:30:13;;;;;;;1.48;1.15;;;19.70;50.50;;;;;;5107062;27;45177;-69
2023/09/24 02:32:40;;;;;;;1.10;1.00;;;19.70;50.50;;;;;;5106923;27;45513;-69
2023/09/24 02:35:09;;;;;;;1.40;0.85;;;19.70;50.50;;;;;;5106193;27;45351;-69
2023/09/24 02:37:36;;;;;;;1.10;1.00;;;19.70;50.50;;;;;;5106760;27;45253;-69
2023/09/24 02:40:06;;;;;;;1.02;0.82;;;19.70;50.50;;;;;;5107008;27;45401;-69
2023/09/24 02:42:32;;;;;;;1.40;0.90;;;19.60;50.40;;;;;;5106487;27;45534;-69
2023/09/24 02:45:00;;;;;;;0.80;0.80;;;19.60;50.40;;;;;;5106597;27;45245;-69
2023/09/24 02:47:28;;;;;;;1.88;1.00;;;19.60;50.50;;;;;;5106614;27;45177;-69
2023/09/24 02:49:55;;;;;;;0.70;0.70;;;19.60;50.40;;;;;;5106895;27;45487;-69
2023/09/24 02:52:22;;;;;;;0.88;0.82;;;19.60;50.50;;;;;;5106460;27;45386;-69
2023/09/24 02:54:49;;;;;;;0.82;0.80;;;19.60;50.50;;;;;;5106223;27;45331;-69
2023/09/24 02:57:16;;;;;;;0.95;0.82;;;19.60;50.40;;;;;;5106402;27;45268;-69
2023/09/24 02:59:43;;;;;;;0.90;0.90;;;19.60;50.50;;;;;;5106670;27;45462;-69
2023/09/24 03:02:10;;;;;;;1.10;0.90;;;19.60;50.50;;;;;;5105709;27;47383;-69
2023/09/24 03:04:40;;;;;;;0.68;0.68;;;19.50;50.40;;;;;;5106156;27;45425;-69
2023/09/24 03:07:10;;;;;;;0.93;0.90;;;19.50;50.50;;;;;;5106506;27;45136;-69
2023/09/24 03:09:37;;;;;;;1.10;0.80;;;19.50;50.50;;;;;;5106782;27;45612;-66
2023/09/24 03:12:04;;;;;;;1.02;0.80;;;19.50;50.40;;;;;;5105948;27;46348;-66
2023/09/24 03:14:31;;;;;;;1.00;0.90;;;19.50;50.40;;;;;;5106046;27;45335;-66
2023/09/24 03:16:59;;;;;;;0.77;0.70;;;19.50;50.30;;;;;;5106401;27;45247;-66
2023/09/24 03:19:26;;;;;;;0.85;0.85;;;19.40;50.30;;;;;;5106450;27;45743;-67
2023/09/24 03:21:54;;;;;;;0.80;0.80;;;19.40;50.30;;;;;;5105957;27;45486;-66
2023/09/24 03:24:21;;;;;;;0.70;0.70;;;19.40;50.40;;;;;;5105929;27;45301;-66
2023/09/24 03:26:48;;;;;;;0.85;0.85;;;19.40;50.30;;;;;;5106277;27;45176;-66
2023/09/24 03:29:15;;;;;;;0.80;0.80;;;19.40;50.30;;;;;;5106318;27;45298;-66
2023/09/24 03:31:43;;;;;;;2.42;0.90;;;19.40;50.40;;;;;;5105789;27;45535;-66
2023/09/24 03:34:10;;;;;;;0.77;0.77;;;19.40;50.40;;;;;;5085346;27;45429;-66
2023/09/24 03:36:38;;;;;;;0.68;0.68;;;19.40;50.40;;;;;;5085466;27;45419;-66
2023/09/24 03:39:07;;;;;;;1.08;0.90;;;19.40;50.30;;;;;;5085877;27;45538;-67
2023/09/24 03:41:34;;;;;;;1.25;0.88;;;19.30;50.30;;;;;;5085689;27;45477;-66
2023/09/24 03:44:00;;;;;;;0.95;0.70;;;19.30;50.30;;;;;;5085422;27;45302;-66
2023/09/24 03:46:27;;;;;;;0.60;0.60;;;19.30;50.30;;;;;;5085429;27;45292;-66
2023/09/24 03:48:54;;;;;;;2.03;0.73;;;19.30;50.30;;;;;;5085900;27;45130;-66
2023/09/24 03:51:21;;;;;;;1.00;0.90;;;19.30;50.40;;;;;;5085379;27;45633;-66
2023/09/24 03:53:48;;;;;;;1.35;0.90;;;19.20;50.30;;;;;;5082612;27;45398;-66
2023/09/24 03:56:17;;;;;;;1.02;0.82;;;19.30;50.30;;;;;;5085758;27;45447;-66
2023/09/24 03:58:43;;;;;;;0.65;0.65;;;19.30;50.90;;;;;;5085706;27;45283;-66
2023/09/24 04:01:11;;;;;;;1.85;0.85;;;19.20;50.30;;;;;;5085434;27;47264;-66
2023/09/24 04:03:38;;;;;;;0.80;0.70;;;19.30;50.30;;;;;;5103986;27;45382;-66
2023/09/24 04:06:10;;;;;;;0.80;0.77;;;19.20;50.20;;;;;;5105962;27;45215;-66
2023/09/24 04:08:37;;;;;;;1.20;0.80;;;19.20;50.20;;;;;;5106010;27;45443;-66
2023/09/24 04:11:06;;;;;;;0.60;0.60;;;19.20;50.30;;;;;;5105599;27;45423;-66
2023/09/24 04:13:35;;;;;;;1.08;0.80;;;19.20;50.30;;;;;;5107505;27;45232;-66
2023/09/24 04:16:07;;;;;;;1.40;0.70;;;19.20;50.20;;;;;;5109448;27;45335;-67
2023/09/24 04:18:35;;;;;;;1.00;0.90;;;19.20;50.20;;;;;;5109569;27;45546;-66
2023/09/24 04:21:02;;;;;;;1.30;1.00;;;19.10;50.20;;;;;;5109059;27;45672;-66
2023/09/24 04:23:29;;;;;;;1.60;1.00;;;19.10;50.20;;;;;;5108878;27;45332;-66
2023/09/24 04:25:56;;;;;;;1.45;0.90;;;19.10;50.20;;;;;;5109360;27;45381;-66
2023/09/24 04:28:23;;;;;;;1.73;1.10;;;19.10;50.30;;;;;;5109392;27;45294;-66
2023/09/24 04:30:51;;;;;;;1.90;1.25;;;19.10;50.20;;;;;;5108964;27;45453;-66
2023/09/24 04:33:18;;;;;;;2.03;1.13;;;19.10;50.20;;;;;;5108754;27;45441;-66
2023/09/24 04:35:45;;;;;;;2.03;1.30;;;19.10;50.30;;;;;;5108577;27;45357;-66
2023/09/24 04:38:12;;;;;;;1.20;1.00;;;19.00;50.20;;;;;;5108767;27;45465;-66
2023/09/24 04:40:39;;;;;;;2.88;1.17;;;19.00;50.20;;;;;;5105652;27;45180;-66
2023/09/24 04:43:06;;;;;;;1.38;0.98;;;19.00;50.20;;;;;;5108704;27;45296;-66
2023/09/24 04:45:33;;;;;;;1.33;1.10;;;19.00;50.30;;;;;;5108952;27;45384;-66
2023/09/24 04:48:01;;;;;;;1.95;0.95;;;19.00;50.30;;;;;;5109160;27;45331;-66
2023/09/24 04:50:28;;;;;;;1.35;0.90;;;19.00;50.30;;;;;;5108649;27;46571;-66
2023/09/24 04:52:55;;;;;;;1.80;1.00;;;19.00;50.20;;;;;;5108485;27;45261;-66
2023/09/24 04:55:22;;;;;;;0.95;0.90;;;19.00;50.10;;;;;;5108862;27;45415;-66
2023/09/24 04:57:49;;;;;;;1.95;1.17;;;18.90;50.20;;;;;;5108938;27;45391;-67
2023/09/24 05:00:17;;;;;;;1.23;1.10;;;18.90;50.10;;;;;;5108361;27;46393;-67
2023/09/24 05:02:44;;;;;;;3.42;1.33;;;18.90;50.10;;;;;;5108492;27;46071;-66
2023/09/24 05:05:14;;;;;;;1.52;1.17;;;18.90;50.20;;;;;;5108431;27;45367;-66
2023/09/24 05:07:41;;;;;;;1.88;1.00;;;18.90;50.20;;;;;;5108769;27;45401;-66
2023/09/24 05:10:09;;;;;;;1.55;0.80;;;18.90;50.20;;;;;;5108317;27;45799;-66
2023/09/24 05:12:36;;;;;;;2.40;1.05;;;18.90;50.20;;;;;;5107815;27;45325;-67
2023/09/24 05:15:03;;;;;;;2.42;1.00;;;18.90;50.10;;;;;;5108521;27;45361;-67
2023/09/24 05:17:32;;;;;;;1.35;1.10;;;18.80;50.10;;;;;;5108729;27;45398;-67
2023/09/24 05:19:58;;;;;;;1.20;0.88;;;18.80;50.10;;;;;;5108394;27;46281;-67
2023/09/24 05:22:27;;;;;;;1.13;0.90;;;18.80;50.00;;;;;;5108496;27;45307;-67
2023/09/24 05:24:54;;;;;;;1.20;0.75;;;18.80;50.10;;;;;;5108034;27;45401;-67
2023/09/24 05:27:21;;;;;;;1.40;0.90;;;18.80;50.10;;;;;;5108383;27;45290;-67
2023/09/24 05:29:48;;;;;;;2.58;0.80;;;18.80;50.10;;;;;;5107982;27;45290;-66
2023/09/24 05:32:15;;;;;;;1.00;0.90;;;18.80;50.10;;;;;;5108212;27;45253;-67
2023/09/24 05:34:42;;;;;;;1.67;0.82;;;18.80;50.10;;;;;;5108073;27;45381;-67
2023/09/24 05:37:09;;;;;;;1.48;1.23;;;18.80;50.10;;;;;;5108255;27;45356;-67
2023/09/24 05:39:37;;;;;;;3.38;0.88;;;18.80;50.10;;;;;;5108264;27;46493;-67
2023/09/24 05:42:05;;;;;;;1.35;0.80;;;18.80;50.10;;;;;;5107997;27;45242;-67
2023/09/24 05:44:32;;;;;;;1.40;1.00;;;18.80;50.10;;;;;;5107729;27;45305;-67
2023/09/24 05:46:59;;;;;;;1.65;1.00;;;18.80;50.10;;;;;;5107916;27;45350;-67
2023/09/24 05:49:26;;;;;;;1.65;1.00;;;18.80;50.10;;;;;;5107797;27;45897;-67
2023/09/24 05:51:53;;;;;;;2.17;1.13;;;18.70;50.20;;;;;;5107846;27;45277;-67
2023/09/24 05:54:20;;;;;;;1.48;0.80;;;18.70;50.20;;;;;;5107896;27;45314;-66
2023/09/24 05:56:48;;;;;;;2.40;1.02;;;18.70;50.20;;;;;;5108251;27;45102;-66
2023/09/24 05:59:15;;;;;;;1.75;0.80;;;18.70;50.10;;;;;;5107185;27;46743;-66
2023/09/24 06:01:42;;;;;;;0.93;0.80;;;18.70;50.10;;;;;;5107427;27;45223;-66
2023/09/24 06:04:09;;;;;;;1.52;1.05;;;18.70;50.20;;;;;;5107613;27;45296;-66
2023/09/24 06:06:36;;;;;;;2.15;0.85;;;18.70;50.20;;;;;;5108296;27;45417;-66
2023/09/24 06:09:08;;;;;;;1.50;0.95;;;18.70;50.20;;;;;;5107661;27;46390;-66
2023/09/24 06:11:35;;;;;;;0.77;0.77;;;18.70;50.20;;;;;;5107648;27;45177;-66
2023/09/24 06:14:08;;;;;;;1.98;0.80;;;18.60;50.20;;;;;;5107577;27;45374;-66
2023/09/24 06:16:35;;;;;;;2.05;0.80;;;18.60;50.20;;;;;;5107784;27;45314;-66
2023/09/24 06:19:02;;;;;;;2.58;1.23;;;18.60;50.20;;;;;;5107205;27;46250;-66
2023/09/24 06:21:28;;;;;;;1.17;0.95;;;18.60;50.20;;;;;;5107383;27;45458;-65
2023/09/24 06:23:55;;;;;;;1.35;1.00;;;18.60;50.20;;;;;;5107260;27;45313;-66
2023/09/24 06:26:22;;;;;;;1.40;1.10;;;18.60;50.90;;;;;;5107616;27;45428;-66
2023/09/24 06:28:49;;;;;;;0.77;0.77;;;18.60;50.30;;;;;;5106997;27;48670;-66
2023/09/24 06:31:17;;;;;;;1.02;0.80;;;18.60;50.40;;;;;;5107129;27;45184;-66
2023/09/24 06:33:44;;;;;;;1.00;0.90;;;18.50;50.40;;;;;;5107213;27;45350;-67
2023/09/24 06:36:11;;;;;;;0.88;0.88;;;18.60;50.30;;;;;;5106139;27;45413;-66
2023/09/24 06:38:38;;;;;;;0.68;0.65;;;18.50;50.30;;;;;;5106727;27;46372;-66
2023/09/24 06:41:04;;;;;;;2.03;0.90;;;18.60;50.30;;;;;;5107011;27;45254;-66
2023/09/24 06:43:31;;;;;;;1.17;0.90;;;18.50;50.30;;;;;;5106865;27;45334;-66
2023/09/24 06:45:58;;;;;;;1.00;0.90;;;18.50;50.30;;;;;;5106716;27;45374;-66
2023/09/24 06:48:26;;;;;;;0.93;0.80;;;18.60;50.30;;;;;;5106610;27;45351;-65
2023/09/24 06:50:54;;;;;;;1.38;0.85;;;18.60;50.30;;;;;;5106711;27;45276;-67
2023/09/24 06:53:21;;;;;;;1.23;0.80;;;18.60;50.30;;;;;;5106621;27;45360;-66
2023/09/24 06:55:48;;;;;;;0.95;0.90;;;18.50;50.30;;;;;;5106736;27;45313;-66
2023/09/24 06:58:14;;;;;;;0.70;0.70;;;18.60;50.30;;;;;;5106402;27;46426;-66
2023/09/24 07:00:41;;;;;;;0.70;0.70;;;18.60;50.20;;;;;;5106787;27;45479;-66
2023/09/24 07:03:08;;;;;;;1.27;0.80;;;18.60;50.30;;;;;;5107010;27;45361;-66
2023/09/24 07:05:38;;;;;;;0.88;0.77;;;18.60;50.20;;;;;;5106955;27;45336;-66
2023/09/24 07:08:05;;;;;;;0.85;0.80;;;18.60;50.20;;;;;;5106404;27;46256;-66
2023/09/24 07:10:32;;;;;;;1.10;0.85;;;18.50;50.20;;;;;;5106168;27;45440;-66
2023/09/24 07:12:59;;;;;;;0.80;0.80;;;18.60;50.30;;;;;;5106467;27;45394;-66
2023/09/24 07:15:25;;;;;;;0.57;0.57;;;18.60;50.30;;;;;;5107200;27;45336;-66
2023/09/24 07:17:52;;;;;;;1.67;0.75;;;18.60;50.20;;;;;;5106216;27;46250;-66
2023/09/24 07:20:20;;;;;;;0.80;0.80;;;18.60;50.20;;;;;;5106392;27;45300;-66
2023/09/24 07:22:48;;;;;;;0.50;0.50;;;18.60;50.20;;;;;;5106150;27;45418;-66
2023/09/24 07:25:15;;;;;;;0.70;0.70;;;18.60;50.20;;;;;;5106667;27;45436;-66
2023/09/24 07:27:42;;;;;;;0.75;0.70;;;18.60;50.10;;;;;;5106391;27;45319;-66
2023/09/24 07:30:10;;;;;;;0.75;0.75;;;18.60;50.20;;;;;;5106151;27;45509;-66
2023/09/24 07:32:37;;;;;;;1.20;0.70;;;18.60;50.70;;;;;;5106150;27;45319;-66
2023/09/24 07:35:04;;;;;;;1.05;0.73;;;18.60;50.10;;;;;;5106315;27;45495;-66
2023/09/24 07:37:31;;;;;;;0.80;0.80;;;18.60;50.10;;;;;;5106069;27;46888;-66
2023/09/24 07:40:01;;;;;;;1.30;0.80;;;18.60;50.10;;;;;;5106201;27;45430;-66
2023/09/24 07:42:28;;;;;;;0.60;0.60;;;18.60;50.10;;;;;;5106386;27;45264;-67
2023/09/24 07:44:55;;;;;;;1.00;0.80;;;18.60;50.70;;;;;;5106279;27;45572;-66
2023/09/24 07:47:22;;;;;;;1.48;0.70;;;18.60;50.10;;;;;;5107539;27;46945;-66
2023/09/24 07:49:49;;;;;;;0.85;0.70;;;18.60;50.10;;;;;;5109470;27;45366;-66
2023/09/24 07:52:16;;;;;;;1.63;0.80;;;18.60;50.10;;;;;;5109646;27;45348;-66
2023/09/24 07:54:43;;;;;;;0.70;0.70;;;18.70;50.20;;;;;;5109511;27;45473;-66
2023/09/24 07:57:11;;;;;;;0.60;0.60;;;18.70;50.20;;;;;;5109586;27;45288;-65
2023/09/24 07:59:38;;;;;;;1.27;0.70;;;18.70;50.20;;;;;;5109563;27;45282;-66
2023/09/24 08:02:05;;;;;;;0.90;0.70;;;18.70;50.10;;;;;;5109553;27;45256;-66
2023/09/24 08:04:32;;;;;;;0.60;0.60;;;18.70;50.20;;;;;;5109784;27;45412;-65
2023/09/24 08:06:59;;;;;;;0.73;0.70;;;18.70;50.20;;;;;;5109365;27;45285;-66
2023/09/24 08:09:25;;;;;;;0.93;0.90;;;18.70;50.20;;;;;;5109439;27;45264;-66
2023/09/24 08:11:52;;;;;;;0.88;0.80;;;18.70;50.30;;;;;;5109536;27;45499;-65
2023/09/24 08:14:20;;;;;;;0.60;0.60;;;18.70;50.30;;;;;;5109427;27;45317;-66
2023/09/24 08:16:47;;;;;;;0.52;0.50;;;18.70;50.30;;;;;;5109390;27;47809;-65
2023/09/24 08:19:14;;;;;;;1.45;0.70;;;18.70;50.30;;;;;;5109061;27;45269;-66
2023/09/24 08:21:41;;;;;;;0.63;0.63;;;18.80;50.20;;;;;;5109131;27;45283;-66
2023/09/24 08:24:08;;;;;;;0.70;0.70;;;18.80;50.30;;;;;;5109211;27;45248;-65
2023/09/24 08:26:36;;;;;;;1.15;0.60;;;18.80;50.20;;;;;;5109134;27;45457;-66
2023/09/24 08:29:06;;;;;;;0.63;0.63;;;18.80;50.30;;;;;;5108910;27;45501;-65
2023/09/24 08:31:34;;;;;;;1.60;0.85;;;18.80;50.30;;;;;;5109257;27;45266;-66
2023/09/24 08:34:01;;;;;;;1.05;0.90;;;18.80;50.30;;;;;;5109118;27;45569;-65
2023/09/24 08:36:29;;;;;;;1.30;0.65;;;18.80;50.30;;;;;;5108581;27;45489;-65
2023/09/24 08:38:56;;;;;;;1.92;0.60;;;18.90;50.40;;;;;;5108737;27;45384;-66
2023/09/24 08:41:23;;;;;;;1.55;0.80;;;18.90;50.30;;;;;;5109017;27;45323;-65
2023/09/24 08:43:50;;;;;;;0.57;0.57;;;18.90;50.40;;;;;;5108665;27;45488;-65
2023/09/24 08:46:17;;;;;;;0.50;0.50;;;18.90;50.50;;;;;;5108587;27;45358;-66
2023/09/24 08:48:45;;;;;;;1.02;0.60;;;18.90;50.60;;;;;;5108784;27;45286;-66
2023/09/24 08:51:12;;;;;;;1.13;0.70;;;18.90;50.50;;;;;;5108902;27;45319;-66
2023/09/24 08:53:39;;;;;;;0.57;0.57;;;18.90;50.50;;;;;;5108909;27;45420;-66
2023/09/24 08:56:07;;;;;;;0.63;0.63;;;18.90;50.40;;;;;;5108736;27;47560;-65
2023/09/24 08:58:37;;;;;;;1.20;0.70;;;19.00;50.50;;;;;;5107607;27;45239;-66
2023/09/24 09:01:04;;;;;;;0.70;0.70;;;19.00;50.50;;;;;;5108761;27;45413;-66
2023/09/24 09:03:31;;;;;;;0.80;0.63;;;19.00;50.50;;;;;;5108507;27;45402;-65
2023/09/24 09:06:03;;;;;;;0.40;0.40;;;19.00;50.50;;;;;;5108054;27;48551;-66
2023/09/24 09:08:30;;;;;;;1.63;0.70;;;19.00;50.60;;;;;;5108396;27;45484;-66
2023/09/24 09:10:57;;;;;;;0.82;0.80;;;19.00;50.60;;;;;;5108423;27;45306;-66
2023/09/24 09:13:24;;;;;;;0.52;0.45;;;19.00;50.70;;;;;;5108367;27;45350;-66
2023/09/24 09:16:02;;;;;;;0.57;0.57;;;19.00;50.80;;;;;;5108163;27;47573;-66
2023/09/24 09:18:29;;;;;;;0.50;0.50;;;19.10;50.60;;;;;;5108141;27;45319;-65
2023/09/24 09:20:59;;;;;;;1.05;0.80;;;19.10;50.50;;;;;;5108452;27;45380;-65
2023/09/24 09:23:35;;;;;;;1.40;0.57;;;19.20;50.60;;;;;;5108171;27;45450;-65
2023/09/24 09:26:02;;;;;;;0.50;0.50;;;19.20;50.40;;;;;;5107975;27;45200;-66
2023/09/24 09:28:30;;;;;;;0.60;0.60;;;19.30;50.40;;;;;;5108004;27;45467;-66
2023/09/24 09:31:01;;;;;;;1.52;0.70;;;19.30;50.50;;;;;;5108041;27;45310;-66
2023/09/24 09:33:28;;;;;;;0.80;0.73;;;19.30;50.70;;;;;;5108307;27;45437;-67
2023/09/24 09:35:57;;;;;;;1.23;0.80;;;19.30;50.70;;;;;;5107922;27;45468;-66
2023/09/24 09:38:24;;;;;;;1.65;0.80;;;19.30;50.90;;;;;;5108047;27;45262;-66
2023/09/24 09:40:55;;;;;;;1.00;0.68;;;19.30;50.90;;;;;;5108142;27;45298;-65
2023/09/24 09:43:23;;;;;;;0.80;0.55;;;19.30;50.90;;;;;;5108002;27;45368;-66
2023/09/24 09:45:51;;;;;;;0.68;0.68;;;19.40;51.00;;;;;;5107494;27;45745;-65
2023/09/24 09:48:18;;;;;;;0.82;0.80;;;19.40;51.00;;;;;;5107701;27;45310;-66
2023/09/24 09:50:45;;;;;;;0.73;0.70;;;19.40;51.00;;;;;;5107768;27;45370;-65
2023/09/24 09:53:14;;;;;;;0.75;0.60;;;19.50;51.00;;;;;;5107736;27;45402;-65
2023/09/24 09:55:42;;;;;;;0.95;0.82;;;19.50;51.00;;;;;;5107555;27;48451;-65
2023/09/24 09:58:10;;;;;;;1.27;0.80;;;19.60;51.00;;;;;;5107477;27;45210;-66
2023/09/24 10:00:38;;;;;;;0.70;0.63;;;19.60;51.00;;;;;;5107300;27;45421;-66
2023/09/24 10:03:05;;;;;;;1.67;0.90;;;19.60;51.10;;;;;;5107735;27;45357;-65
2023/09/24 10:05:32;;;;;;;0.80;0.70;;;19.60;51.00;;;;;;5107509;27;47535;-66
2023/09/24 10:07:59;;;;;;;0.50;0.50;;;19.60;51.00;;;;;;5107017;27;45355;-66
2023/09/24 10:10:42;;;;;;;2.35;0.82;;;19.70;51.00;;;;;;5106902;27;45395;-66
2023/09/24 10:13:40;;;;;;;0.88;0.63;;;19.70;51.00;;;;;;5107129;27;45260;-66
2023/09/24 10:16:30;;;;;;;2.92;0.73;;;19.80;51.10;;;;;;5106885;27;46710;-66
2023/09/24 10:18:58;;;;;;;0.77;0.77;;;19.90;51.10;;;;;;5106972;27;45118;-66
2023/09/24 10:21:29;;;;;;;0.77;0.77;;;19.90;51.00;;;;;;5107250;27;45310;-66
2023/09/24 10:23:56;;;;;;;0.85;0.70;;;20.00;51.70;;;;;;5107232;27;45352;-66
2023/09/24 10:26:48;;;;;;;0.85;0.60;;;20.00;51.10;;;;;;5107332;27;46311;-66
2023/09/24 10:29:16;;;;;;;1.95;0.70;;;20.00;50.90;;;;;;5106692;27;45342;-66
2023/09/24 10:32:14;;;;;;;1.58;0.80;;;20.10;51.20;;;;;;5107481;27;45321;-66
2023/09/24 10:35:08;;;;;;;1.40;0.70;;;20.20;51.10;;;;;;5106931;27;45525;-66
2023/09/24 10:37:37;;;;;;;0.50;0.50;;;20.30;51.10;;;;;;5107121;27;46436;-66
2023/09/24 10:40:05;;;;;;;0.82;0.77;;;20.30;50.90;;;;;;5107006;27;45357;-67
2023/09/24 10:42:33;;;;;;;1.27;0.80;;;20.40;50.80;;;;;;5106623;27;45389;-66
2023/09/24 10:45:28;;;;;;;0.82;0.82;;;20.50;50.70;;;;;;5106802;27;45330;-66
2023/09/24 10:47:55;;;;;;;1.13;0.82;;;20.60;50.60;;;;;;5106966;27;47661;-66
2023/09/24 10:50:23;;;;;;;1.05;0.68;;;20.60;50.50;;;;;;5106545;27;45473;-66
2023/09/24 10:52:50;;;;;;;0.85;0.80;;;20.70;50.40;;;;;;5106886;27;45338;-66
2023/09/24 10:55:17;;;;;;;2.13;0.80;;;20.80;51.00;;;;;;5106671;27;45595;-66
2023/09/24 10:57:45;;;;;;;0.80;0.80;;;20.90;50.30;;;;;;5106162;27;46308;-66
2023/09/24 11:00:15;;;;;;;0.73;0.73;;;20.90;50.20;;;;;;5106338;27;45392;-66
2023/09/24 11:02:43;;;;;;;1.55;0.80;;;21.00;50.20;;;;;;5106337;27;45380;-66
2023/09/24 11:05:10;;;;;;;0.70;0.70;;;21.10;50.10;;;;;;5106634;27;45265;-66
2023/09/24 11:07:37;;;;;;;1.33;0.60;;;21.20;50.00;;;;;;5106461;27;46624;-66
2023/09/24 11:10:05;;;;;;;0.70;0.70;;;21.30;49.90;;;;;;5106551;27;45337;-67
2023/09/24 11:12:31;;;;;;;0.80;0.80;;;21.30;49.80;;;;;;5106490;27;45377;-66
2023/09/24 11:14:59;;;;;;;0.82;0.77;;;21.40;49.70;;;;;;5106321;27;45557;-67
2023/09/24 11:17:26;;;;;;;1.58;0.90;;;21.50;49.50;;;;;;5105793;27;45436;-66
2023/09/24 11:19:54;;;;;;;0.93;0.80;;;21.60;49.50;;;;;;5106326;27;45316;-66
2023/09/24 11:22:22;;;;;;;1.33;0.85;;;21.70;49.40;;;;;;5107879;27;45293;-66
2023/09/24 11:24:52;;;;;;;0.80;0.80;;;21.70;49.40;;;;;;5110058;27;45552;-67
2023/09/24 11:27:19;;;;;;;1.08;0.80;;;21.90;49.10;;;;;;5109953;27;46490;-67
2023/09/24 11:30:02;;;;;;;1.30;0.82;;;21.90;49.20;;;;;;5110088;27;45180;-67
2023/09/24 11:32:29;;;;;;;1.90;0.80;;;22.00;49.10;;;;;;5109703;27;45412;-67
2023/09/24 11:35:08;;;;;;;1.10;0.70;;;22.00;49.10;;;;;;5109970;27;45306;-67
2023/09/24 11:37:50;;;;;;;0.75;0.60;;;22.10;48.90;;;;;;5109830;27;45644;-67
2023/09/24 11:40:27;;;;;;;0.60;0.60;;;22.20;48.80;;;;;;5107363;27;45245;-66
2023/09/24 11:42:54;;;;;;;0.90;0.70;;;22.30;48.60;;;;;;5109508;27;45398;-67
2023/09/24 11:45:42;;;;;;;1.25;0.70;;;22.30;48.60;;;;;;5109773;27;45377;-66
2023/09/24 11:48:10;;;;;;;0.60;0.60;;;22.40;48.70;;;;;;5109414;27;45289;-66
2023/09/24 11:50:39;;;;;;;0.80;0.57;;;22.50;48.40;;;;;;5109313;27;45359;-66
2023/09/24 11:53:06;;;;;;;0.73;0.68;;;22.50;48.20;;;;;;5109663;27;45263;-67
2023/09/24 11:55:32;;;;;;;0.75;0.70;;;22.60;48.30;;;;;;5108715;27;45448;-69
2023/09/24 11:57:59;;;;;;;0.93;0.68;;;22.70;48.10;;;;;;5108754;27;46421;-66
2023/09/24 12:00:26;;;;;;;1.08;0.90;;;22.70;48.40;;;;;;5109175;27;45319;-67
2023/09/24 12:02:53;;;;;;;0.73;0.73;;;22.80;48.50;;;;;;5109437;27;45288;-66
2023/09/24 12:05:20;;;;;;;0.82;0.70;;;22.90;48.90;;;;;;5109224;27;45390;-67
2023/09/24 12:07:50;;;;;;;2.45;0.90;;;23.00;49.00;;;;;;5109134;27;45370;-66
2023/09/24 12:10:18;;;;;;;1.52;0.73;;;23.10;49.00;;;;;;5109016;27;45375;-67
2023/09/24 12:12:45;;;;;;;0.52;0.52;;;23.20;48.90;;;;;;5109282;27;45315;-67
2023/09/24 12:15:13;;;;;;;2.78;0.70;;;23.30;48.80;;;;;;5108729;27;45488;-66
2023/09/24 12:17:40;;;;;;;1.60;0.70;;;23.30;49.00;;;;;;5108632;27;45379;-67
2023/09/24 12:20:08;;;;;;;1.25;0.90;;;23.30;49.20;;;;;;5109267;27;45359;-66
2023/09/24 12:22:35;;;;;;;1.40;0.80;;;23.40;49.20;;;;;;5108942;27;45256;-67
2023/09/24 12:25:04;;;;;;;1.25;0.73;;;23.50;49.50;;;;;;5109472;27;45371;-67
2023/09/24 12:27:31;;;;;;;2.40;0.90;;;23.50;49.40;;;;;;5108859;27;45315;-67
2023/09/24 12:29:58;;;;;;;2.20;0.80;;;23.50;50.60;;;;;;5108961;27;45263;-67
2023/09/24 12:32:24;;;;;;;1.02;0.75;;;23.60;49.60;;;;;;5108893;27;45271;-67
2023/09/24 12:34:51;;;;;;;1.55;0.90;;;23.70;49.20;;;;;;5107409;27;45248;-67
2023/09/24 12:37:18;;;;;;;0.57;0.57;;;23.70;49.30;;;;;;5108552;27;46274;-66
2023/09/24 12:39:45;;;;;;;0.98;0.80;;;23.80;49.30;;;;;;5108695;27;45409;-67
2023/09/24 12:42:13;;;;;;;1.27;0.63;;;23.90;48.80;;;;;;5108405;27;45324;-67
2023/09/24 12:44:40;;;;;;;0.55;0.52;;;24.00;48.50;;;;;;5109223;27;45290;-68
2023/09/24 12:47:07;;;;;;;1.35;0.57;;;24.10;48.60;;;;;;5108659;27;46400;-66
2023/09/24 12:49:34;;;;;;;2.13;1.48;;;24.20;48.60;;;;;;5107498;27;45491;-67
2023/09/24 12:52:01;;;;;;;1.20;0.90;;;24.30;48.60;;;;;;5107881;27;45327;-68
2023/09/24 12:54:28;;;;;;;0.90;0.90;;;24.40;48.70;;;;;;5102336;27;45412;-67